Humidity-temperature Sensor

Selected Measurement Type: Air Temperature

 
Air Temperature [°C]     6 entries per hour
Showing data from 9/1/2020 (04:40:00 Z) to 8/31/2020 (00:01:00 Z)
Previous Next [ Day | 3-Days | 7-Days ]
First Last
Prev [ Day | 3-Days | 7-Days ] Next
First Last

Start Time:     :
End Time:     :     
Time (in GMT) :00 :50 :40 :30 :20 :10
Previous Next [ Day | 3-Days | 7-Days ]
First Last
Prev [ Day | 3-Days | 7-Days ] Next
First Last


123 => good data
MM => data is determined as missing
-- => data not received/configured
Back to Top Back to Top
9/1/2020 05:00 to 4:10 -- -- 29.06 29.02 29.04 29.06
9/1/2020 04:00 to 3:10 29.10 29.05 28.99 28.92 28.87 28.88
9/1/2020 03:00 to 2:10 28.89 28.88 28.77 28.87 28.84 28.73
9/1/2020 02:00 to 1:10 28.75 28.72 28.70 28.73 28.66 28.76
9/1/2020 01:00 to 0:10 28.63 28.70 28.65 28.63 28.61 28.56
9/1/2020 00:00 to 23:10 28.55 28.60 28.68 28.69 28.73 28.69
8/31/2020 23:00 to 22:10 28.65 28.63 28.66 28.56 28.53 28.51
8/31/2020 22:00 to 21:10 28.98 28.96 29.04 28.92 29.08 28.97
8/31/2020 21:00 to 20:10 29.18 29.11 29.14 29.06 29.08 29.04
8/31/2020 20:00 to 19:10 28.98 28.96 28.88 28.81 28.65 28.63
8/31/2020 19:00 to 18:10 28.61 28.61 28.64 28.63 28.69 28.70
8/31/2020 18:00 to 17:10 28.65 28.63 28.55 28.48 28.57 28.62
8/31/2020 17:00 to 16:10 28.65 28.75 28.77 28.78 28.78 28.77
8/31/2020 16:00 to 15:10 28.71 28.70 28.70 28.73 28.69 28.73
8/31/2020 15:00 to 14:10 28.76 28.86 28.86 28.79 28.81 28.69
8/31/2020 14:00 to 13:10 28.66 28.66 28.73 28.65 28.68 28.68
8/31/2020 13:00 to 12:10 28.63 28.73 28.68 28.64 28.65 29.01
8/31/2020 12:00 to 11:10 29.02 29.10 29.13 29.14 29.13 29.14
8/31/2020 11:00 to 10:10 28.99 28.84 28.64 28.66 29.02 29.04
8/31/2020 10:00 to 9:10 29.12 28.98 29.07 29.02 29.00 29.02
8/31/2020 09:00 to 8:10 29.03 29.01 29.05 29.09 28.99 28.97
8/31/2020 08:00 to 7:10 28.99 28.94 28.94 28.95 28.96 28.90
8/31/2020 07:00 to 6:10 29.00 29.05 29.07 29.16 29.21 29.25
8/31/2020 06:00 to 5:10 29.25 29.22 29.09 29.14 29.17 29.15
8/31/2020 05:00 to 4:10 29.11 29.09 29.12 29.20 29.18 29.08
8/31/2020 04:00 to 3:10 29.05 29.02 28.97 29.00 28.85 28.93
8/31/2020 03:00 to 2:10 28.95 28.89 28.84 28.92 28.89 28.94
8/31/2020 02:00 to 1:10 28.92 28.88 28.84 28.84 28.78 28.86
8/31/2020 01:00 to 0:10 28.88 28.79 28.90 28.90 28.86 28.81